createdAt,value
2022-08-05T00:00:00.624Z,40.0
2022-08-05T00:01:20.213Z,40.1
2022-08-05T00:02:07.945Z,40.2
2022-08-05T00:03:00.309Z,40.2
2022-08-05T00:04:00.433Z,40.1
2022-08-05T00:05:00.300Z,39.8
2022-08-05T00:06:05.692Z,39.8
2022-08-05T00:07:00.367Z,39.8
2022-08-05T00:08:01.579Z,39.9
2022-08-05T00:09:00.585Z,39.7
2022-08-05T00:10:00.375Z,39.7
2022-08-05T00:11:01.296Z,39.8
2022-08-05T00:12:00.396Z,39.9
2022-08-05T00:13:00.422Z,39.9
2022-08-05T00:14:00.308Z,40.2
2022-08-05T00:15:40.751Z,40.1
2022-08-05T00:16:00.610Z,40.0
2022-08-05T00:17:01.812Z,39.9
2022-08-05T00:18:02.571Z,39.7
2022-08-05T00:19:00.290Z,39.7
2022-08-05T00:20:02.752Z,39.8
2022-08-05T00:21:00.351Z,39.6
2022-08-05T00:22:00.345Z,39.6
2022-08-05T00:23:02.718Z,39.7
2022-08-05T00:24:10.146Z,39.8
2022-08-05T00:25:00.344Z,39.7
2022-08-05T00:26:00.389Z,39.9
2022-08-05T00:27:00.347Z,40.0
2022-08-05T00:28:00.325Z,40.1
2022-08-05T00:29:00.307Z,40.0
2022-08-05T00:30:03.092Z,39.4
2022-08-05T00:31:02.732Z,39.3
2022-08-05T00:32:12.597Z,39.1
2022-08-05T00:33:00.317Z,39.2
2022-08-05T00:34:53.546Z,39.3
2022-08-05T00:35:06.247Z,39.2
2022-08-05T00:36:16.550Z,39.1
2022-08-05T00:37:11.568Z,38.9
2022-08-05T00:38:00.388Z,38.9
2022-08-05T00:39:00.431Z,39.1
2022-08-05T00:40:00.400Z,39.1
2022-08-05T00:41:00.306Z,39.2
2022-08-05T00:42:00.291Z,39.3
2022-08-05T00:43:00.313Z,39.3
2022-08-05T00:44:00.296Z,39.5
2022-08-05T00:45:00.611Z,39.5
2022-08-05T00:46:00.396Z,39.4
2022-08-05T00:47:02.028Z,39.2
2022-08-05T00:48:04.985Z,38.9
2022-08-05T00:49:00.450Z,39.0
2022-08-05T00:50:00.286Z,39.2
2022-08-05T00:51:00.383Z,39.4
2022-08-05T00:52:00.310Z,39.3
2022-08-05T00:53:00.309Z,39.2
2022-08-05T00:54:02.962Z,39.0
2022-08-05T00:55:00.473Z,38.9
2022-08-05T00:56:00.399Z,38.7
2022-08-05T00:57:00.364Z,38.3
2022-08-05T00:58:00.302Z,38.4
2022-08-05T00:59:00.456Z,38.4
2022-08-05T01:00:00.397Z,38.1
2022-08-05T01:01:00.426Z,38.2
2022-08-05T01:02:00.327Z,38.3
2022-08-05T01:03:00.298Z,38.5
2022-08-05T01:04:00.338Z,38.7
2022-08-05T01:05:00.400Z,38.5
2022-08-05T01:06:00.306Z,38.5
2022-08-05T01:07:00.306Z,38.3
2022-08-05T01:08:39.950Z,38.5
2022-08-05T01:09:00.304Z,38.3
2022-08-05T01:10:00.419Z,38.1
2022-08-05T01:11:00.291Z,38.2
2022-08-05T01:12:09.315Z,38.3
2022-08-05T01:13:05.350Z,38.5
2022-08-05T01:14:00.356Z,38.5
2022-08-05T01:15:00.307Z,38.6
2022-08-05T01:16:00.416Z,38.6
2022-08-05T01:17:00.310Z,38.6
2022-08-05T01:18:00.386Z,38.6
2022-08-05T01:19:00.754Z,38.5
2022-08-05T01:20:02.806Z,38.7
2022-08-05T01:21:00.397Z,38.7
2022-08-05T01:22:00.304Z,38.8
2022-08-05T01:23:00.318Z,38.8
2022-08-05T01:24:00.297Z,38.7
2022-08-05T01:25:00.381Z,38.7
2022-08-05T01:26:00.317Z,38.7
2022-08-05T01:27:00.299Z,38.6
2022-08-05T01:28:00.509Z,38.6
2022-08-05T01:29:00.619Z,38.4
2022-08-05T01:30:00.361Z,38.3
2022-08-05T01:31:00.437Z,38.2
2022-08-05T01:32:00.329Z,37.7
2022-08-05T01:33:00.314Z,37.8
2022-08-05T01:34:00.396Z,38.0
2022-08-05T01:35:00.368Z,38.0
2022-08-05T01:36:00.477Z,38.1
2022-08-05T01:37:00.663Z,38.2
2022-08-05T01:38:00.324Z,38.3
2022-08-05T01:39:01.352Z,38.2
2022-08-05T01:40:00.420Z,38.4
2022-08-05T01:41:01.383Z,38.3
2022-08-05T01:42:00.439Z,38.3
2022-08-05T01:43:00.384Z,38.1
2022-08-05T01:44:00.296Z,38.1
2022-08-05T01:45:02.399Z,38.1
2022-08-05T01:46:07.150Z,37.8
2022-08-05T01:47:00.323Z,37.5
2022-08-05T01:48:00.515Z,37.7
2022-08-05T01:49:00.320Z,37.7
2022-08-05T01:50:02.848Z,37.6
2022-08-05T01:51:00.287Z,37.6
2022-08-05T01:52:00.289Z,37.6
2022-08-05T01:53:00.318Z,37.8
2022-08-05T01:54:00.387Z,37.7
2022-08-05T01:55:00.508Z,37.7
2022-08-05T01:56:00.298Z,37.8
2022-08-05T01:58:09.706Z,37.5
2022-08-05T01:58:10.722Z,37.7
2022-08-05T01:59:00.305Z,37.5
2022-08-05T02:00:00.416Z,37.5
2022-08-05T02:01:00.381Z,37.8
2022-08-05T02:02:00.435Z,37.5
2022-08-05T02:03:00.294Z,37.5
2022-08-05T02:04:00.307Z,37.6
2022-08-05T02:05:00.303Z,37.6
2022-08-05T02:06:03.329Z,37.8
2022-08-05T02:07:00.323Z,37.7
2022-08-05T02:08:01.225Z,37.6
2022-08-05T02:09:00.304Z,37.8
2022-08-05T02:10:00.555Z,37.8
2022-08-05T02:11:00.305Z,37.8
2022-08-05T02:12:00.381Z,37.7
2022-08-05T02:13:00.500Z,37.7
2022-08-05T02:14:00.358Z,37.6
2022-08-05T02:15:00.323Z,37.7
2022-08-05T02:16:00.392Z,37.7
2022-08-05T02:17:00.377Z,37.7
2022-08-05T02:18:30.614Z,37.7
2022-08-05T02:19:00.296Z,38.0
2022-08-05T02:20:00.316Z,37.6
2022-08-05T02:21:00.310Z,37.7
2022-08-05T02:22:00.298Z,37.7
2022-08-05T02:23:00.289Z,37.7
2022-08-05T02:24:00.407Z,37.9
2022-08-05T02:25:00.416Z,37.9
2022-08-05T02:26:00.396Z,37.7
2022-08-05T02:27:00.301Z,37.3
2022-08-05T02:28:00.571Z,37.3
2022-08-05T02:29:00.314Z,37.5
2022-08-05T02:30:00.931Z,37.5
2022-08-05T02:31:00.299Z,37.4
2022-08-05T02:32:00.396Z,37.2
2022-08-05T02:33:00.388Z,37.3
2022-08-05T02:34:00.402Z,37.3
2022-08-05T02:35:00.553Z,37.2
2022-08-05T02:36:01.320Z,37.1
2022-08-05T02:37:00.309Z,37.0
2022-08-05T02:38:00.418Z,37.5
2022-08-05T02:39:00.508Z,37.1
2022-08-05T02:40:00.407Z,37.1
2022-08-05T02:41:00.293Z,37.1
2022-08-05T02:42:01.456Z,36.6
2022-08-05T02:43:00.433Z,36.5
2022-08-05T02:44:02.901Z,36.6
2022-08-05T02:45:00.333Z,36.3
2022-08-05T02:46:00.998Z,36.3
2022-08-05T02:47:01.181Z,36.5
2022-08-05T02:48:11.937Z,36.7
2022-08-05T02:49:00.393Z,36.5
2022-08-05T02:50:00.389Z,36.2
2022-08-05T02:51:00.361Z,35.9
2022-08-05T02:52:02.854Z,36.0
2022-08-05T02:53:00.313Z,36.0
2022-08-05T02:54:04.176Z,36.0
2022-08-05T02:55:02.053Z,36.1
2022-08-05T02:56:02.060Z,35.9
2022-08-05T02:57:00.393Z,35.9
2022-08-05T02:58:19.878Z,35.5
2022-08-05T02:59:00.292Z,35.3
2022-08-05T03:00:00.299Z,35.3
2022-08-05T03:01:00.498Z,35.3
2022-08-05T03:02:00.545Z,35.3
2022-08-05T03:03:00.314Z,34.9
2022-08-05T03:04:03.251Z,35.0
2022-08-05T03:05:00.324Z,35.0
2022-08-05T03:06:54.922Z,34.7
2022-08-05T03:07:00.388Z,34.5
2022-08-05T03:08:08.796Z,34.7
2022-08-05T03:09:00.317Z,34.4
2022-08-05T03:10:00.288Z,34.2
2022-08-05T03:11:50.051Z,34.0
2022-08-05T03:12:00.322Z,33.9
2022-08-05T03:14:03.023Z,33.6
2022-08-05T03:15:00.337Z,33.9
2022-08-05T03:16:00.321Z,34.0
2022-08-05T03:17:00.403Z,34.3
2022-08-05T03:18:00.357Z,34.1
2022-08-05T03:19:00.381Z,34.1
2022-08-05T03:20:00.351Z,34.2
2022-08-05T03:21:00.406Z,34.3
2022-08-05T03:22:00.399Z,34.3
2022-08-05T03:23:00.405Z,34.4
2022-08-05T03:24:00.472Z,34.6
2022-08-05T03:25:31.459Z,34.5
2022-08-05T03:26:04.859Z,34.4
2022-08-05T03:27:00.515Z,34.3
2022-08-05T03:28:00.755Z,34.2
2022-08-05T03:29:00.558Z,34.3
2022-08-05T03:30:07.530Z,34.2
2022-08-05T03:31:00.794Z,34.2
2022-08-05T03:32:00.788Z,34.3
2022-08-05T03:33:00.573Z,34.1
2022-08-05T03:34:00.685Z,34.1
2022-08-05T03:35:00.773Z,34.1
2022-08-05T03:36:00.511Z,33.9
2022-08-05T03:37:00.785Z,34.2
2022-08-05T03:38:00.560Z,34.2
2022-08-05T03:39:00.569Z,34.0
2022-08-05T03:40:01.669Z,33.9
2022-08-05T03:41:00.509Z,33.9
2022-08-05T03:42:00.615Z,33.6
2022-08-05T03:43:15.678Z,33.5
2022-08-05T03:44:11.825Z,33.2
2022-08-05T03:45:01.584Z,33.0
2022-08-05T03:46:00.673Z,33.1
2022-08-05T03:47:00.601Z,33.2
2022-08-05T03:48:00.561Z,33.2
2022-08-05T03:49:01.885Z,33.2
2022-08-05T03:50:00.722Z,33.3
2022-08-05T03:52:36.872Z,32.8
2022-08-05T03:52:48.707Z,32.8
2022-08-05T03:55:50.441Z,32.6
2022-08-05T03:55:50.587Z,32.8
2022-08-05T03:56:05.120Z,32.7
2022-08-05T03:56:10.005Z,32.9
2022-08-05T03:57:00.547Z,32.6
2022-08-05T03:58:00.496Z,32.6
2022-08-05T03:59:00.306Z,32.4
2022-08-05T04:00:01.464Z,32.3
2022-08-05T04:01:00.414Z,32.1
2022-08-05T04:02:00.574Z,31.9
2022-08-05T04:03:00.315Z,31.8
2022-08-05T04:04:10.092Z,31.7
2022-08-05T04:05:00.338Z,31.5
2022-08-05T04:06:00.292Z,31.6
2022-08-05T04:07:00.417Z,31.5
2022-08-05T04:08:00.334Z,31.3
2022-08-05T04:09:00.306Z,31.2
2022-08-05T04:10:02.920Z,31.2
2022-08-05T04:11:00.303Z,31.2
2022-08-05T04:12:00.308Z,31.4
2022-08-05T04:13:00.411Z,31.3
2022-08-05T04:14:00.280Z,31.3
2022-08-05T04:15:00.302Z,31.3
2022-08-05T04:16:04.737Z,31.5
2022-08-05T04:17:00.449Z,31.6
2022-08-05T04:18:00.385Z,31.6
2022-08-05T04:19:00.402Z,31.6
2022-08-05T04:20:00.307Z,31.5
2022-08-05T04:21:00.289Z,31.7
2022-08-05T04:22:09.352Z,31.1
2022-08-05T04:23:00.318Z,31.1
2022-08-05T04:24:05.433Z,31.5
2022-08-05T04:25:00.305Z,31.5
2022-08-05T04:26:01.058Z,31.9
2022-08-05T04:27:00.314Z,31.5
2022-08-05T04:28:03.970Z,31.6
2022-08-05T04:29:00.838Z,31.4
2022-08-05T04:30:03.769Z,31.4
2022-08-05T04:31:01.135Z,31.6
2022-08-05T04:32:00.502Z,31.1
2022-08-05T04:33:00.393Z,31.0
2022-08-05T04:34:31.175Z,31.3
2022-08-05T04:35:00.456Z,31.0
2022-08-05T04:36:16.375Z,31.0
2022-08-05T04:37:00.762Z,31.2
2022-08-05T04:38:01.983Z,31.2
2022-08-05T04:39:00.423Z,31.3
2022-08-05T04:40:00.297Z,31.3
2022-08-05T04:41:00.431Z,31.4
2022-08-05T04:42:00.305Z,31.6
2022-08-05T04:43:00.283Z,31.6
2022-08-05T04:44:00.315Z,30.9
2022-08-05T04:45:01.054Z,30.9
2022-08-05T04:46:00.317Z,31.0
2022-08-05T04:47:09.483Z,30.9
2022-08-05T04:48:00.282Z,30.8
2022-08-05T04:49:00.299Z,28.9
2022-08-05T04:50:03.081Z,26.3
2022-08-05T04:51:02.537Z,24.6
2022-08-05T04:52:00.733Z,23.6
2022-08-05T04:53:00.378Z,22.5
2022-08-05T04:54:01.331Z,21.9
2022-08-05T04:55:00.348Z,22.0
2022-08-05T04:56:33.150Z,21.9
2022-08-05T04:57:00.312Z,21.5
2022-08-05T04:58:00.281Z,20.4
2022-08-05T04:59:00.377Z,20.5
2022-08-05T05:00:00.417Z,20.7
2022-08-05T05:01:00.306Z,20.2
2022-08-05T05:02:35.401Z,20.0
2022-08-05T05:03:03.736Z,19.7
2022-08-05T05:04:00.324Z,19.5
2022-08-05T05:05:02.798Z,19.7
2022-08-05T05:06:39.670Z,19.4
2022-08-05T05:07:00.301Z,19.3
2022-08-05T05:08:01.082Z,19.1
2022-08-05T05:09:00.587Z,18.9
2022-08-05T05:10:01.966Z,19.2
2022-08-05T05:11:00.329Z,19.8
2022-08-05T05:12:02.902Z,19.7
2022-08-05T05:13:00.289Z,19.6
2022-08-05T05:14:00.315Z,19.3
2022-08-05T05:15:03.698Z,18.8
2022-08-05T05:16:02.129Z,19.1
2022-08-05T05:17:00.324Z,19.0
2022-08-05T05:18:00.911Z,19.1
2022-08-05T05:19:18.528Z,19.2
2022-08-05T05:20:00.359Z,19.6
2022-08-05T05:21:00.394Z,19.8
2022-08-05T05:22:03.588Z,19.7
2022-08-05T05:23:04.172Z,20.0
2022-08-05T05:24:04.314Z,20.2
2022-08-05T05:25:01.276Z,20.0
2022-08-05T05:26:00.400Z,20.0
2022-08-05T05:27:00.412Z,19.6
2022-08-05T05:28:00.320Z,19.6
2022-08-05T05:29:00.381Z,19.5
2022-08-05T05:30:05.024Z,19.2
2022-08-05T05:31:00.368Z,19.0
2022-08-05T05:32:00.352Z,18.9
2022-08-05T05:33:03.474Z,18.4
2022-08-05T05:34:02.020Z,18.6
2022-08-05T05:35:00.343Z,18.9
2022-08-05T05:36:00.559Z,18.8
2022-08-05T05:37:00.334Z,18.7
2022-08-05T05:38:02.211Z,18.7
2022-08-05T05:39:00.574Z,18.4
2022-08-05T05:40:00.347Z,18.0
2022-08-05T05:41:00.349Z,18.1
2022-08-05T05:42:00.469Z,17.6
2022-08-05T05:43:00.515Z,17.7
2022-08-05T05:44:00.820Z,17.7
2022-08-05T05:45:00.388Z,18.0
2022-08-05T05:46:00.362Z,18.1
2022-08-05T05:47:04.166Z,18.4
2022-08-05T05:48:05.395Z,18.3
2022-08-05T05:49:00.516Z,18.4
2022-08-05T05:50:01.478Z,17.9
2022-08-05T05:51:00.316Z,18.0
2022-08-05T05:52:00.303Z,18.0
2022-08-05T05:53:00.437Z,18.0
2022-08-05T05:54:00.550Z,18.2
2022-08-05T05:55:00.285Z,18.1
2022-08-05T05:56:03.168Z,17.9
2022-08-05T05:57:00.351Z,17.7
2022-08-05T05:58:02.006Z,17.6
2022-08-05T05:59:03.484Z,17.6
2022-08-05T06:00:00.485Z,17.5
2022-08-05T06:01:12.189Z,17.3
2022-08-05T06:02:00.292Z,17.2
2022-08-05T06:03:00.336Z,16.9
2022-08-05T06:04:03.540Z,17.0
2022-08-05T06:05:00.410Z,17.1
2022-08-05T06:06:00.334Z,16.9
2022-08-05T06:07:01.397Z,16.9
2022-08-05T06:08:01.842Z,17.4
2022-08-05T06:09:00.329Z,17.8
2022-08-05T06:10:04.682Z,17.9
2022-08-05T06:11:00.314Z,17.3
2022-08-05T06:12:01.648Z,17.4
2022-08-05T06:13:00.398Z,17.7
2022-08-05T06:14:00.684Z,17.6
2022-08-05T06:15:00.485Z,17.6
2022-08-05T06:16:29.066Z,17.4
2022-08-05T06:17:01.912Z,17.9
2022-08-05T06:18:00.325Z,18.1
2022-08-05T06:19:01.992Z,18.1
2022-08-05T06:20:00.332Z,17.8
2022-08-05T06:21:00.315Z,17.7
2022-08-05T06:22:00.287Z,17.4
2022-08-05T06:23:00.388Z,17.6
2022-08-05T06:24:00.303Z,17.7
2022-08-05T06:25:00.313Z,17.8
2022-08-05T06:26:20.829Z,18.2
2022-08-05T06:27:00.390Z,18.3
2022-08-05T06:28:10.865Z,18.1
2022-08-05T06:29:03.263Z,18.0
2022-08-05T06:30:04.375Z,18.1
2022-08-05T06:31:00.454Z,18.0
2022-08-05T06:32:00.408Z,17.8
2022-08-05T06:33:00.320Z,17.9
2022-08-05T06:34:07.454Z,17.7
2022-08-05T06:35:05.785Z,17.7
2022-08-05T06:36:07.389Z,17.6
2022-08-05T06:37:00.365Z,17.1
2022-08-05T06:38:04.295Z,17.2
2022-08-05T06:39:00.368Z,17.2
2022-08-05T06:40:00.366Z,16.5
2022-08-05T06:41:00.382Z,16.7
2022-08-05T06:42:00.295Z,17.0
2022-08-05T06:43:00.302Z,17.2
2022-08-05T06:44:00.725Z,17.2
2022-08-05T06:45:00.304Z,17.1
2022-08-05T06:46:03.906Z,17.2
2022-08-05T06:47:02.175Z,16.9
2022-08-05T06:48:36.409Z,17.0
2022-08-05T06:49:01.102Z,16.9
2022-08-05T06:50:05.008Z,17.0
2022-08-05T06:51:00.459Z,17.1
2022-08-05T06:52:00.632Z,16.8
2022-08-05T06:53:11.174Z,17.2
2022-08-05T06:54:00.293Z,17.1
2022-08-05T06:55:00.285Z,16.9
2022-08-05T06:56:00.576Z,17.0
2022-08-05T06:57:14.069Z,17.1
2022-08-05T06:58:20.316Z,17.2
2022-08-05T06:59:00.529Z,17.0
2022-08-05T07:00:00.326Z,16.8
2022-08-05T07:01:00.584Z,17.0
2022-08-05T07:02:00.287Z,17.0
2022-08-05T07:03:00.303Z,16.9
2022-08-05T07:04:00.420Z,16.9
2022-08-05T07:05:00.386Z,16.8
2022-08-05T07:06:00.390Z,16.6
2022-08-05T07:07:00.341Z,16.7
2022-08-05T07:08:00.320Z,16.9
2022-08-05T07:09:00.382Z,17.3
2022-08-05T07:10:03.533Z,17.3
2022-08-05T07:11:00.485Z,16.9
2022-08-05T07:12:00.802Z,17.0
2022-08-05T07:13:00.376Z,17.0
2022-08-05T07:14:00.327Z,17.7
2022-08-05T07:15:00.308Z,18.1
2022-08-05T07:16:04.625Z,18.6
2022-08-05T07:18:02.349Z,18.8
2022-08-05T07:18:08.977Z,19.0
2022-08-05T07:19:00.292Z,18.9
2022-08-05T07:20:33.273Z,19.0
2022-08-05T07:21:04.789Z,19.1
2022-08-05T07:22:01.451Z,19.0
2022-08-05T07:23:00.330Z,19.0
2022-08-05T07:24:01.305Z,19.1
2022-08-05T07:25:23.655Z,19.1
2022-08-05T07:26:00.381Z,18.7
2022-08-05T07:27:00.376Z,18.7
2022-08-05T07:28:05.756Z,19.0
2022-08-05T07:29:00.302Z,19.3
2022-08-05T07:30:30.103Z,19.5
2022-08-05T07:31:00.281Z,19.2
2022-08-05T07:32:00.290Z,19.5
2022-08-05T07:33:00.303Z,19.2
2022-08-05T07:34:00.466Z,18.5
2022-08-05T07:35:00.317Z,18.7
2022-08-05T07:36:19.498Z,18.8
2022-08-05T07:37:00.314Z,19.1
2022-08-05T07:38:00.391Z,19.6
2022-08-05T07:39:00.491Z,19.5
2022-08-05T07:40:26.088Z,19.4
2022-08-05T07:41:16.596Z,19.4
2022-08-05T07:42:13.396Z,19.8
2022-08-05T07:43:04.735Z,19.8
2022-08-05T07:44:00.381Z,19.4
2022-08-05T07:45:00.511Z,19.4
2022-08-05T07:46:00.292Z,19.8
2022-08-05T07:47:00.308Z,20.0
2022-08-05T07:48:00.457Z,19.7
2022-08-05T07:49:02.099Z,20.0
2022-08-05T07:50:00.299Z,20.1
2022-08-05T07:51:00.315Z,20.0
2022-08-05T07:52:00.286Z,19.8
2022-08-05T07:53:00.311Z,19.7
2022-08-05T07:54:01.959Z,19.4
2022-08-05T07:55:00.416Z,19.0
2022-08-05T07:56:06.587Z,19.0
2022-08-05T07:57:18.113Z,19.0
2022-08-05T07:58:03.179Z,19.5
2022-08-05T07:59:00.391Z,19.7
2022-08-05T08:00:00.347Z,19.9
2022-08-05T08:01:00.538Z,20.1
2022-08-05T08:02:00.362Z,20.8
2022-08-05T08:03:14.116Z,20.8
2022-08-05T08:04:00.305Z,21.0
2022-08-05T08:05:00.533Z,20.6
2022-08-05T08:06:00.282Z,20.5
2022-08-05T08:07:00.303Z,20.6
2022-08-05T08:08:00.689Z,20.8
2022-08-05T08:09:00.304Z,20.9
2022-08-05T08:10:00.320Z,21.4
2022-08-05T08:11:00.417Z,21.2
2022-08-05T08:12:06.178Z,21.1
2022-08-05T08:13:01.544Z,20.8
2022-08-05T08:14:00.789Z,20.7
2022-08-05T08:15:02.734Z,20.1
2022-08-05T08:16:35.017Z,20.3
2022-08-05T08:17:00.398Z,20.7
2022-08-05T08:18:01.797Z,20.4
2022-08-05T08:19:00.393Z,20.6
2022-08-05T08:20:22.067Z,20.4
2022-08-05T08:21:03.638Z,20.8
2022-08-05T08:22:00.402Z,21.0
2022-08-05T08:23:03.162Z,21.1
2022-08-05T08:24:04.982Z,21.1
2022-08-05T08:25:03.072Z,21.0
2022-08-05T08:26:02.681Z,20.8
2022-08-05T08:27:00.440Z,21.0
2022-08-05T08:28:00.475Z,20.6
2022-08-05T08:29:21.490Z,20.7
2022-08-05T08:30:04.690Z,21.1
2022-08-05T08:31:00.318Z,20.0
2022-08-05T08:32:00.384Z,20.4
2022-08-05T08:33:02.652Z,20.5
2022-08-05T08:34:00.488Z,20.5
2022-08-05T08:35:00.353Z,20.0
2022-08-05T08:36:29.569Z,19.9
2022-08-05T08:37:03.309Z,19.1
2022-08-05T08:38:00.305Z,19.5
2022-08-05T08:39:01.517Z,19.8
2022-08-05T08:40:00.440Z,19.0
2022-08-05T08:41:00.315Z,19.2
2022-08-05T08:42:02.245Z,19.0
2022-08-05T08:45:01.617Z,19.3
2022-08-05T08:45:18.097Z,19.1
2022-08-05T08:45:20.551Z,19.3
2022-08-05T08:46:00.286Z,18.9
2022-08-05T08:47:00.385Z,19.0
2022-08-05T08:48:07.558Z,18.9
2022-08-05T08:50:05.374Z,18.7
2022-08-05T08:50:23.167Z,18.7
2022-08-05T08:51:22.997Z,18.6
2022-08-05T08:52:03.433Z,18.5
2022-08-05T08:53:00.305Z,18.6
2022-08-05T08:54:00.374Z,18.7
2022-08-05T08:55:00.316Z,18.3
2022-08-05T08:56:05.105Z,18.3
2022-08-05T08:57:00.314Z,18.0
2022-08-05T08:58:00.400Z,17.9
2022-08-05T08:59:00.384Z,17.9
2022-08-05T09:00:00.416Z,17.9
2022-08-05T09:01:00.357Z,18.3
2022-08-05T09:02:00.936Z,18.1
2022-08-05T09:03:00.393Z,17.8
2022-08-05T09:04:00.332Z,18.0
2022-08-05T09:05:16.619Z,17.6
2022-08-05T09:06:08.487Z,17.4
2022-08-05T09:07:00.353Z,17.6
2022-08-05T09:08:00.430Z,17.7
2022-08-05T09:09:00.379Z,18.4
2022-08-05T09:10:00.310Z,18.4
2022-08-05T09:11:00.304Z,18.6
2022-08-05T09:12:04.796Z,18.7
2022-08-05T09:13:05.213Z,18.5
2022-08-05T09:14:09.194Z,18.1
2022-08-05T09:15:06.173Z,18.0
2022-08-05T09:16:00.378Z,17.7
2022-08-05T09:17:00.302Z,17.7
2022-08-05T09:18:00.315Z,17.7
2022-08-05T09:19:00.309Z,18.0
2022-08-05T09:20:02.540Z,18.4
2022-08-05T09:21:00.307Z,18.6
2022-08-05T09:22:22.941Z,17.8
2022-08-05T09:23:04.958Z,17.9
2022-08-05T09:24:02.429Z,17.5
2022-08-05T09:25:00.301Z,17.6
2022-08-05T09:26:05.814Z,17.8
2022-08-05T09:27:00.307Z,17.4
2022-08-05T09:28:04.212Z,17.4
2022-08-05T09:29:00.326Z,17.5
2022-08-05T09:30:04.642Z,17.9
2022-08-05T09:31:00.483Z,17.9
2022-08-05T09:32:42.804Z,17.4
2022-08-05T09:33:00.302Z,17.7
2022-08-05T09:34:00.526Z,17.8
2022-08-05T09:35:00.374Z,17.7
2022-08-05T09:36:03.640Z,17.6
2022-08-05T09:37:00.339Z,17.3
2022-08-05T09:38:17.915Z,17.4
2022-08-05T09:39:00.564Z,17.4
2022-08-05T09:40:00.526Z,17.8
2022-08-05T09:41:00.389Z,17.6
2022-08-05T09:42:00.350Z,17.5
2022-08-05T09:43:00.398Z,17.4
2022-08-05T09:44:00.445Z,17.4
2022-08-05T09:45:17.194Z,17.6
2022-08-05T09:46:07.605Z,17.3
2022-08-05T09:47:00.611Z,17.3
2022-08-05T09:48:01.558Z,17.6
2022-08-05T09:49:08.272Z,17.9
2022-08-05T09:50:02.649Z,17.2
2022-08-05T09:51:00.541Z,17.1
2022-08-05T09:52:00.703Z,17.3
2022-08-05T09:53:00.497Z,16.9
2022-08-05T09:54:00.748Z,17.0
2022-08-05T09:58:00.419Z,17.3
2022-08-05T09:59:00.318Z,17.4
2022-08-05T10:00:03.650Z,17.5
2022-08-05T10:01:00.329Z,17.1
2022-08-05T10:02:00.323Z,17.3
2022-08-05T10:03:00.398Z,17.3
2022-08-05T10:04:00.670Z,17.4
2022-08-05T10:05:00.426Z,17.8
2022-08-05T10:06:02.710Z,18.0
2022-08-05T10:07:01.665Z,18.0
2022-08-05T10:08:34.771Z,17.9
2022-08-05T10:09:00.402Z,17.6
2022-08-05T10:10:15.323Z,17.8
2022-08-05T10:11:00.317Z,18.2
2022-08-05T10:12:02.844Z,18.0
2022-08-05T10:13:00.308Z,17.9
2022-08-05T10:14:00.303Z,17.9
2022-08-05T10:15:00.310Z,18.0
2022-08-05T10:16:00.463Z,17.9
2022-08-05T10:17:00.411Z,17.7
2022-08-05T10:18:00.399Z,17.7
2022-08-05T10:19:00.397Z,17.9
2022-08-05T10:20:04.290Z,18.0
2022-08-05T10:21:00.337Z,17.4
2022-08-05T10:22:00.348Z,18.0
2022-08-05T10:23:00.318Z,17.6
2022-08-05T10:24:01.345Z,17.7
2022-08-05T10:25:00.317Z,17.9
2022-08-05T10:26:00.302Z,17.9
2022-08-05T10:27:01.230Z,18.3
2022-08-05T10:28:13.214Z,18.3
2022-08-05T10:29:00.459Z,18.1
2022-08-05T10:30:41.263Z,17.7
2022-08-05T10:32:47.090Z,17.4
2022-08-05T10:32:52.646Z,17.6
2022-08-05T10:33:01.801Z,17.7
2022-08-05T10:34:00.291Z,17.8
2022-08-05T10:35:01.353Z,17.7
2022-08-05T10:36:00.297Z,17.8
2022-08-05T10:37:00.319Z,17.4
2022-08-05T10:38:00.297Z,17.5
2022-08-05T10:39:00.394Z,17.3
2022-08-05T10:40:16.759Z,17.2
2022-08-05T10:41:00.453Z,17.6
2022-08-05T10:42:01.171Z,17.7
2022-08-05T10:43:00.322Z,18.1
2022-08-05T10:44:00.378Z,18.2
2022-08-05T10:45:00.409Z,18.3
2022-08-05T10:46:06.386Z,18.0
2022-08-05T10:47:00.333Z,17.8
2022-08-05T10:48:31.410Z,17.8
2022-08-05T10:49:08.080Z,18.2
2022-08-05T10:50:31.749Z,18.1
2022-08-05T10:51:00.305Z,18.2
2022-08-05T10:52:02.716Z,18.3
2022-08-05T10:53:00.392Z,18.2
2022-08-05T10:54:00.915Z,18.0
2022-08-05T10:55:00.315Z,17.9
2022-08-05T10:56:05.206Z,18.0
2022-08-05T10:57:00.300Z,17.8
2022-08-05T10:58:00.360Z,17.8
2022-08-05T10:59:07.210Z,17.6
2022-08-05T11:00:02.103Z,17.6
2022-08-05T11:01:02.900Z,17.5
2022-08-05T11:02:05.261Z,17.3
2022-08-05T11:03:23.011Z,17.3
2022-08-05T11:04:00.862Z,17.7
2022-08-05T11:05:00.367Z,17.6
2022-08-05T11:06:00.563Z,17.8
2022-08-05T11:07:00.318Z,18.0
2022-08-05T11:08:02.564Z,18.0
2022-08-05T11:09:00.318Z,17.9
2022-08-05T11:10:07.722Z,17.5
2022-08-05T11:11:02.719Z,17.2
2022-08-05T11:12:00.609Z,17.0
2022-08-05T11:13:01.369Z,17.1
2022-08-05T11:14:00.768Z,17.2
2022-08-05T11:15:11.458Z,17.5
2022-08-05T11:16:02.036Z,17.3
2022-08-05T11:17:14.080Z,17.3
2022-08-05T11:18:04.031Z,17.4
2022-08-05T11:19:00.312Z,17.5
2022-08-05T11:20:16.849Z,17.2
2022-08-05T11:21:00.316Z,16.9
2022-08-05T11:22:00.315Z,17.1
2022-08-05T11:23:05.836Z,17.0
2022-08-05T11:24:05.377Z,16.8
2022-08-05T11:26:03.532Z,16.7
2022-08-05T11:26:04.994Z,16.6
2022-08-05T11:27:00.313Z,16.4
2022-08-05T11:28:00.450Z,16.5
2022-08-05T11:29:11.860Z,16.4
2022-08-05T11:30:00.315Z,16.3
2022-08-05T11:31:00.415Z,16.4
2022-08-05T11:32:01.311Z,16.5
2022-08-05T11:33:00.320Z,16.8
2022-08-05T11:34:00.424Z,16.8
2022-08-05T11:35:00.338Z,16.5
2022-08-05T11:36:08.145Z,16.4
2022-08-05T11:37:00.312Z,16.3
2022-08-05T11:38:29.891Z,16.2
2022-08-05T11:39:00.504Z,16.4
2022-08-05T11:40:03.842Z,16.3
2022-08-05T11:41:14.091Z,16.2
2022-08-05T11:42:01.311Z,16.3
2022-08-05T11:43:00.388Z,16.3
2022-08-05T11:44:05.411Z,16.2
2022-08-05T11:45:00.340Z,16.0
2022-08-05T11:46:30.872Z,16.0
2022-08-05T11:47:13.974Z,16.3
2022-08-05T11:48:00.331Z,16.1
2022-08-05T11:49:00.338Z,16.1
2022-08-05T11:50:00.323Z,16.3
2022-08-05T11:51:00.296Z,16.2
2022-08-05T11:52:00.435Z,16.3
2022-08-05T11:53:00.359Z,16.4
2022-08-05T11:54:00.322Z,16.6
2022-08-05T11:55:07.658Z,16.3
2022-08-05T11:56:00.309Z,16.4
2022-08-05T11:57:00.362Z,16.0
2022-08-05T11:58:10.936Z,16.0
2022-08-05T11:59:00.378Z,16.2
2022-08-05T12:00:00.359Z,16.1
2022-08-05T12:01:00.375Z,16.3
2022-08-05T12:02:00.485Z,16.4
2022-08-05T12:03:00.591Z,16.4
2022-08-05T12:04:00.475Z,16.4
2022-08-05T12:05:00.615Z,16.4
2022-08-05T12:06:00.357Z,16.4
2022-08-05T12:07:00.309Z,16.1
2022-08-05T12:08:03.637Z,15.3
2022-08-05T12:09:00.384Z,15.3
2022-08-05T12:10:06.078Z,15.3
2022-08-05T12:11:00.306Z,15.9
2022-08-05T12:12:00.397Z,15.5
2022-08-05T12:13:00.513Z,15.5
2022-08-05T12:14:04.365Z,15.5
2022-08-05T12:15:00.408Z,15.5
2022-08-05T12:16:00.311Z,15.6
2022-08-05T12:17:00.284Z,15.5
2022-08-05T12:18:04.136Z,15.5
2022-08-05T12:19:00.376Z,15.5
2022-08-05T12:20:26.091Z,15.6
2022-08-05T12:21:00.383Z,15.2
2022-08-05T12:22:01.279Z,15.5
2022-08-05T12:23:00.312Z,15.5
2022-08-05T12:24:04.339Z,14.9
2022-08-05T12:25:00.429Z,15.2
2022-08-05T12:26:00.289Z,15.4
2022-08-05T12:27:00.364Z,15.7
2022-08-05T12:28:02.399Z,15.5
2022-08-05T12:29:01.543Z,15.7
2022-08-05T12:30:00.356Z,15.6
2022-08-05T12:31:02.307Z,15.6
2022-08-05T12:32:02.096Z,15.6
2022-08-05T12:33:07.105Z,15.5
2022-08-05T12:34:00.384Z,15.5
2022-08-05T12:35:00.306Z,15.4
2022-08-05T12:36:00.380Z,15.6
2022-08-05T12:37:00.447Z,15.6
2022-08-05T12:38:00.343Z,15.8
2022-08-05T12:39:00.422Z,15.7
2022-08-05T12:40:03.022Z,15.5
2022-08-05T12:41:00.484Z,15.5
2022-08-05T12:42:00.284Z,15.3
2022-08-05T12:43:00.480Z,15.5
2022-08-05T12:44:00.304Z,15.4
2022-08-05T12:45:00.303Z,15.5
2022-08-05T12:46:00.317Z,15.3
2022-08-05T12:47:00.328Z,15.2
2022-08-05T12:48:17.569Z,15.4
2022-08-05T12:49:00.417Z,15.6
2022-08-05T12:50:04.494Z,15.7
2022-08-05T12:51:00.372Z,15.8
2022-08-05T12:52:14.032Z,15.5
2022-08-05T12:53:00.445Z,15.3
2022-08-05T12:54:00.316Z,15.4
2022-08-05T12:55:00.377Z,15.4
2022-08-05T12:56:00.318Z,15.2
2022-08-05T12:57:00.311Z,15.3
2022-08-05T12:58:49.557Z,15.4
2022-08-05T12:59:02.798Z,15.3
2022-08-05T13:01:58.474Z,15.3
2022-08-05T13:02:04.263Z,15.6
2022-08-05T13:02:07.849Z,15.2
2022-08-05T13:03:00.536Z,15.5
2022-08-05T13:04:00.378Z,15.2
2022-08-05T13:05:00.343Z,15.6
2022-08-05T13:06:01.042Z,15.4
2022-08-05T13:07:00.422Z,15.3
2022-08-05T13:08:01.259Z,15.3
2022-08-05T13:09:00.340Z,15.3
2022-08-05T13:10:01.070Z,15.1
2022-08-05T13:11:00.285Z,15.2
2022-08-05T13:12:03.165Z,15.2
2022-08-05T13:13:00.391Z,15.7
2022-08-05T13:14:05.103Z,15.4
2022-08-05T13:15:06.236Z,15.6
2022-08-05T13:16:00.286Z,15.4
2022-08-05T13:17:00.308Z,15.4
2022-08-05T13:18:00.317Z,15.5
2022-08-05T13:19:00.403Z,15.5
2022-08-05T13:20:00.286Z,15.6
2022-08-05T13:21:00.282Z,15.5
2022-08-05T13:22:00.299Z,15.3